createdAt,value
2023-02-19T00:01:55.594Z,7.524109
2023-02-19T00:05:20.853Z,7.453613
2023-02-19T00:08:46.121Z,7.373047
2023-02-19T00:12:11.396Z,7.423401
2023-02-19T00:15:36.602Z,7.423401
2023-02-19T00:19:01.851Z,7.352905
2023-02-19T00:22:27.119Z,7.393188
2023-02-19T00:25:52.366Z,7.373047
2023-02-19T00:29:17.644Z,7.302551
2023-02-19T00:32:42.895Z,7.403259
2023-02-19T00:36:08.148Z,7.463684
2023-02-19T00:39:33.411Z,7.453613
2023-02-19T00:42:58.682Z,7.373047
2023-02-19T00:46:24.003Z,7.312622
2023-02-19T00:49:49.256Z,7.373047
2023-02-19T00:53:14.515Z,7.302551
2023-02-19T00:56:39.815Z,7.302551
2023-02-19T01:00:04.988Z,7.302551
2023-02-19T01:03:30.265Z,7.28241
2023-02-19T01:06:55.521Z,7.28241
2023-02-19T01:10:20.774Z,7.242126
2023-02-19T01:13:46.023Z,7.201843
2023-02-19T01:17:11.305Z,7.232056
2023-02-19T01:20:36.575Z,7.242126
2023-02-19T01:24:01.810Z,7.242126
2023-02-19T01:27:27.066Z,7.312622
2023-02-19T01:30:52.318Z,7.322693
2023-02-19T01:34:17.561Z,7.302551
2023-02-19T01:37:42.861Z,7.272339
2023-02-19T01:41:08.401Z,7.342834
2023-02-19T01:44:33.380Z,7.393188
2023-02-19T01:47:58.643Z,7.423401
2023-02-19T01:51:23.887Z,7.393188
2023-02-19T01:54:49.151Z,7.352905
2023-02-19T01:58:14.385Z,7.393188
2023-02-19T02:01:39.704Z,7.342834
2023-02-19T02:05:04.889Z,7.322693
2023-02-19T02:08:30.196Z,7.312622
2023-02-19T02:11:55.469Z,7.342834
2023-02-19T02:15:20.697Z,7.352905
2023-02-19T02:18:45.956Z,7.342834
2023-02-19T02:22:11.225Z,7.312622
2023-02-19T02:25:36.482Z,7.352905
2023-02-19T02:29:01.779Z,7.302551
2023-02-19T02:32:26.991Z,7.28241
2023-02-19T02:35:52.263Z,7.312622
2023-02-19T02:39:17.508Z,7.393188
2023-02-19T02:42:42.766Z,7.393188
2023-02-19T02:46:08.089Z,7.352905
2023-02-19T02:49:33.310Z,7.312622
2023-02-19T02:52:58.522Z,7.302551
2023-02-19T02:56:23.773Z,7.252197
2023-02-19T02:59:49.087Z,7.211914
2023-02-19T03:03:15.201Z,7.242126
2023-02-19T03:06:40.479Z,7.131348
2023-02-19T03:10:05.720Z,7.171631
2023-02-19T03:13:30.955Z,7.232056
2023-02-19T03:16:56.208Z,7.211914
2023-02-19T03:20:21.476Z,7.272339
2023-02-19T03:23:46.742Z,7.242126
2023-02-19T03:27:12.013Z,7.272339
2023-02-19T03:30:37.370Z,7.201843
2023-02-19T03:34:02.548Z,7.232056
2023-02-19T03:37:27.779Z,7.312622
2023-02-19T03:40:53.059Z,7.232056
2023-02-19T03:44:18.311Z,7.151489
2023-02-19T03:47:43.565Z,7.211914
2023-02-19T03:51:09.109Z,7.272339
2023-02-19T03:54:34.094Z,7.312622
2023-02-19T03:57:59.310Z,7.232056
2023-02-19T04:01:24.612Z,7.312622
2023-02-19T04:04:49.889Z,7.312622
2023-02-19T04:08:15.110Z,7.373047
2023-02-19T04:11:41.076Z,7.453613
2023-02-19T04:15:06.338Z,7.403259
2023-02-19T04:18:31.601Z,7.352905
2023-02-19T04:21:56.868Z,7.352905
2023-02-19T04:25:22.136Z,7.373047
2023-02-19T04:28:47.393Z,7.373047
2023-02-19T04:32:12.640Z,7.352905
2023-02-19T04:35:37.936Z,7.373047
2023-02-19T04:39:03.170Z,7.403259
2023-02-19T04:42:28.487Z,7.433472
2023-02-19T04:45:53.787Z,7.483826
2023-02-19T04:49:19.032Z,7.493896
2023-02-19T04:52:44.272Z,7.453613
2023-02-19T04:56:09.521Z,7.463684
2023-02-19T04:59:34.749Z,7.524109
2023-02-19T05:03:00.000Z,7.524109
2023-02-19T05:06:25.299Z,7.524109
2023-02-19T05:09:50.548Z,7.453613
2023-02-19T05:13:15.832Z,7.453613
2023-02-19T05:16:41.074Z,7.423401
2023-02-19T05:20:06.309Z,7.493896
2023-02-19T05:23:31.644Z,7.463684
2023-02-19T05:26:56.897Z,7.453613
2023-02-19T05:30:22.212Z,7.503967
2023-02-19T05:33:47.379Z,7.493896
2023-02-19T05:37:12.657Z,7.493896
2023-02-19T05:40:37.901Z,7.483826
2023-02-19T05:44:03.157Z,7.493896
2023-02-19T05:47:28.420Z,7.393188
2023-02-19T05:50:53.690Z,7.403259
2023-02-19T05:54:18.927Z,7.423401
2023-02-19T05:57:44.179Z,7.352905
2023-02-19T06:01:09.750Z,7.322693
2023-02-19T06:04:34.729Z,7.342834
2023-02-19T06:07:59.985Z,7.373047
2023-02-19T06:11:25.246Z,7.342834
2023-02-19T06:14:50.541Z,7.373047
2023-02-19T06:18:15.819Z,7.463684
2023-02-19T06:21:41.112Z,7.423401
2023-02-19T06:25:06.404Z,7.483826
2023-02-19T06:28:31.711Z,7.483826
2023-02-19T06:31:57.111Z,7.483826
2023-02-19T06:35:22.359Z,7.483826
2023-02-19T06:38:47.637Z,7.433472
2023-02-19T06:42:12.943Z,7.352905
2023-02-19T06:45:38.223Z,7.242126
2023-02-19T06:49:03.509Z,7.151489
2023-02-19T06:52:28.801Z,7.201843
2023-02-19T06:55:53.961Z,7.242126
2023-02-19T06:59:19.241Z,7.242126
2023-02-19T07:02:44.581Z,7.232056
2023-02-19T07:06:09.931Z,7.211914
2023-02-19T07:09:35.201Z,7.201843
2023-02-19T07:13:00.483Z,7.060852
2023-02-19T07:16:26.007Z,6.990356
2023-02-19T07:19:51.706Z,6.990356
2023-02-19T07:23:16.860Z,7.03064
2023-02-19T07:26:42.119Z,6.950073
2023-02-19T07:30:08.112Z,6.990356
2023-02-19T07:33:33.556Z,6.980286
2023-02-19T07:36:58.848Z,6.980286
2023-02-19T07:40:24.493Z,7.060852
2023-02-19T07:43:50.002Z,7.050781
2023-02-19T07:47:15.264Z,6.990356
2023-02-19T07:50:40.515Z,7.050781
2023-02-19T07:54:11.031Z,7.070923
2023-02-19T07:57:37.868Z,7.101135
2023-02-19T08:02:03.497Z,7.16156
2023-02-19T08:05:52.974Z,7.232056
2023-02-19T08:09:35.624Z,7.252197
2023-02-19T08:13:00.897Z,7.242126
2023-02-19T08:16:41.047Z,7.322693
2023-02-19T08:19:59.928Z,7.403259
2023-02-19T08:23:25.287Z,7.554321
2023-02-19T08:26:50.643Z,7.554321
2023-02-19T08:30:18.699Z,7.554321
2023-02-19T08:34:55.540Z,7.614746
2023-02-19T08:38:31.017Z,7.6651
2023-02-19T08:41:56.776Z,7.604675
2023-02-19T08:45:21.962Z,7.53418
2023-02-19T08:48:47.231Z,7.53418
2023-02-19T08:53:06.185Z,7.584534
2023-02-19T08:56:31.520Z,7.584534
2023-02-19T08:59:58.390Z,7.574463
2023-02-19T09:03:24.166Z,7.604675
2023-02-19T09:06:49.488Z,7.574463
2023-02-19T09:10:14.700Z,7.675171
2023-02-19T09:13:39.944Z,7.735596
2023-02-19T09:17:05.182Z,7.745667
2023-02-19T09:20:30.447Z,7.78595
2023-02-19T09:23:55.674Z,7.796021
2023-02-19T09:27:20.954Z,7.745667
2023-02-19T09:30:46.221Z,7.896729
2023-02-19T09:34:11.484Z,7.947083
2023-02-19T09:37:36.799Z,8.017578
2023-02-19T09:41:02.049Z,8.067932
2023-02-19T09:44:27.274Z,8.078003
2023-02-19T09:47:52.521Z,8.158569
2023-02-19T09:51:17.801Z,8.259277
2023-02-19T09:54:43.143Z,8.430481
2023-02-19T09:58:08.743Z,8.551331
2023-02-19T10:01:34.307Z,8.521118
2023-02-19T10:04:59.811Z,8.521118
2023-02-19T10:08:25.057Z,8.531189
2023-02-19T10:11:50.902Z,8.450623
2023-02-19T10:15:16.282Z,8.400269
2023-02-19T10:18:41.820Z,8.430481
2023-02-19T10:22:07.058Z,8.500977
2023-02-19T10:25:32.326Z,8.631897
2023-02-19T10:28:57.590Z,8.712463
2023-02-19T10:32:22.989Z,8.682251
2023-02-19T10:35:48.197Z,8.662109
2023-02-19T10:39:13.419Z,8.803101
2023-02-19T10:42:38.708Z,8.954163
2023-02-19T10:46:03.937Z,9.0448
2023-02-19T10:49:29.177Z,9.095154
2023-02-19T10:52:54.393Z,8.873596
2023-02-19T10:56:19.616Z,8.893738
2023-02-19T10:59:45.008Z,8.843384
2023-02-19T11:03:10.377Z,8.863525
2023-02-19T11:06:35.602Z,8.803101
2023-02-19T11:10:00.866Z,8.712463
2023-02-19T11:13:26.204Z,8.450623
2023-02-19T11:16:51.422Z,8.249207
2023-02-19T11:20:16.667Z,7.967224
2023-02-19T11:23:41.833Z,7.765808
2023-02-19T11:27:07.032Z,7.584534
2023-02-19T11:30:34.508Z,7.503967
2023-02-19T11:33:57.410Z,7.463684
2023-02-19T11:37:22.588Z,7.453613
2023-02-19T11:40:47.849Z,7.393188
2023-02-19T11:44:13.037Z,7.483826
2023-02-19T11:47:38.235Z,7.373047
2023-02-19T11:51:03.430Z,7.091064
2023-02-19T11:54:28.587Z,7.091064
2023-02-19T11:57:53.760Z,7.16156
2023-02-19T12:01:19.006Z,7.28241
2023-02-19T12:04:44.196Z,7.242126
2023-02-19T12:08:09.405Z,7.322693
2023-02-19T12:11:34.654Z,7.252197
2023-02-19T12:15:00.423Z,7.252197
2023-02-19T12:18:25.261Z,7.242126
2023-02-19T12:21:50.414Z,7.28241
2023-02-19T12:25:15.613Z,7.171631
2023-02-19T12:28:40.781Z,7.060852
2023-02-19T12:32:06.034Z,7.03064
2023-02-19T12:35:31.169Z,7.060852
2023-02-19T12:38:56.352Z,6.980286
2023-02-19T12:42:21.504Z,6.980286
2023-02-19T12:45:46.699Z,6.919861
2023-02-19T12:49:11.820Z,6.980286
2023-02-19T12:52:36.994Z,7.060852
2023-02-19T12:56:02.191Z,7.050781
2023-02-19T12:59:27.367Z,6.950073
2023-02-19T13:02:52.537Z,6.950073
2023-02-19T13:06:18.010Z,6.940002
2023-02-19T13:09:42.942Z,6.980286
2023-02-19T13:13:08.089Z,7.03064
2023-02-19T13:16:33.233Z,6.980286
2023-02-19T13:19:58.535Z,6.950073
2023-02-19T13:23:23.681Z,7.050781
2023-02-19T13:26:48.850Z,7.101135
2023-02-19T13:30:14.062Z,7.131348
2023-02-19T13:33:39.159Z,7.232056
2023-02-19T13:37:04.369Z,7.242126
2023-02-19T13:40:29.567Z,7.28241
2023-02-19T13:43:54.765Z,7.302551
2023-02-19T13:47:19.950Z,7.272339
2023-02-19T13:50:45.155Z,7.28241
2023-02-19T13:54:10.319Z,7.211914
2023-02-19T13:57:35.504Z,7.252197
2023-02-19T14:01:00.812Z,7.272339
2023-02-19T14:04:26.035Z,7.272339
2023-02-19T14:07:51.247Z,7.242126
2023-02-19T14:11:16.400Z,7.131348
2023-02-19T14:14:41.610Z,7.020569
2023-02-19T14:18:06.952Z,6.990356
2023-02-19T14:21:32.435Z,7.091064
2023-02-19T14:24:57.669Z,7.101135
2023-02-19T14:28:22.923Z,7.131348
2023-02-19T15:05:36.199Z,7.131348
2023-02-19T15:09:01.433Z,6.809082
2023-02-19T15:12:26.639Z,6.728516
2023-02-19T15:15:51.838Z,6.708374
2023-02-19T15:19:17.031Z,6.668091
2023-02-19T15:22:42.233Z,6.688232
2023-02-19T15:26:07.408Z,6.728516
2023-02-19T15:29:32.607Z,6.738586
2023-02-19T15:32:57.829Z,6.738586
2023-02-19T15:36:23.014Z,6.728516
2023-02-19T15:39:48.217Z,6.698303
2023-02-19T15:43:13.399Z,6.738586
2023-02-19T15:46:38.809Z,6.839294
2023-02-19T15:50:03.876Z,6.889648
2023-02-19T15:53:29.078Z,6.809082
2023-02-19T15:56:54.245Z,6.758728
2023-02-19T16:00:19.564Z,6.728516
2023-02-19T16:03:44.747Z,6.53717
2023-02-19T16:07:10.065Z,6.587524
2023-02-19T16:10:35.225Z,6.557312
2023-02-19T16:14:00.440Z,6.547241
2023-02-19T16:17:25.595Z,6.577454
2023-02-19T16:20:50.758Z,6.557312
2023-02-19T16:24:15.967Z,6.547241
2023-02-19T16:27:41.095Z,6.577454
2023-02-19T16:31:06.257Z,6.506958
2023-02-19T16:34:31.377Z,6.486816
2023-02-19T16:37:56.543Z,6.517029
2023-02-19T16:41:21.716Z,6.577454
2023-02-19T16:44:46.858Z,6.668091
2023-02-19T16:48:12.008Z,6.53717
2023-02-19T16:51:37.181Z,6.486816
2023-02-19T16:55:02.369Z,6.53717
2023-02-19T16:58:27.573Z,6.486816
2023-02-19T17:01:52.818Z,6.396179
2023-02-19T17:05:18.050Z,6.426392
2023-02-19T17:08:43.221Z,6.436462
2023-02-19T17:12:08.371Z,6.436462
2023-02-19T17:15:33.516Z,6.40625
2023-02-19T17:18:58.696Z,6.506958
2023-02-19T17:22:23.893Z,6.607666
2023-02-19T17:25:49.015Z,6.607666
2023-02-19T17:29:14.313Z,6.607666
2023-02-19T17:32:39.460Z,6.607666
2023-02-19T17:36:04.599Z,6.617737
2023-02-19T17:39:29.814Z,6.517029
2023-02-19T17:42:54.995Z,6.486816
2023-02-19T17:46:20.128Z,6.476746
2023-02-19T17:49:45.281Z,6.517029
2023-02-19T17:53:10.523Z,6.376038
2023-02-19T17:56:35.726Z,6.214905
2023-02-19T18:00:00.918Z,6.144409
2023-02-19T18:03:26.161Z,6.15448
2023-02-19T18:06:51.387Z,6.15448
2023-02-19T18:10:16.624Z,6.124268
2023-02-19T18:13:41.876Z,6.245117
2023-02-19T18:17:07.105Z,6.295471
2023-02-19T18:20:32.312Z,6.355896
2023-02-19T18:23:57.615Z,6.325684
2023-02-19T18:27:22.912Z,6.27533
2023-02-19T18:30:48.337Z,6.194763
2023-02-19T18:34:13.428Z,6.214905
2023-02-19T18:37:38.745Z,6.194763
2023-02-19T18:41:04.037Z,6.184692
2023-02-19T18:44:29.339Z,6.094055
2023-02-19T18:47:54.613Z,6.083984
2023-02-19T18:51:20.377Z,6.063843
2023-02-19T18:54:45.621Z,6.083984
2023-02-19T18:58:10.930Z,6.094055
2023-02-19T19:01:36.338Z,6.144409
2023-02-19T19:05:01.542Z,6.174622
2023-02-19T19:08:27.792Z,6.15448
2023-02-19T19:11:52.154Z,6.144409
2023-02-19T19:15:18.401Z,6.194763
2023-02-19T19:18:42.763Z,6.295471
2023-02-19T19:22:08.044Z,6.335754
2023-02-19T19:25:33.360Z,6.355896
2023-02-19T19:28:58.696Z,6.376038
2023-02-19T19:32:24.028Z,6.355896
2023-02-19T19:35:49.298Z,6.365967
2023-02-19T19:39:14.534Z,6.436462
2023-02-19T19:42:39.828Z,6.436462
2023-02-19T19:46:05.099Z,6.517029
2023-02-19T19:49:30.301Z,6.557312
2023-02-19T19:52:55.581Z,6.53717
2023-02-19T19:56:20.876Z,6.577454
2023-02-19T19:59:46.114Z,6.517029
2023-02-19T20:03:11.341Z,6.517029
2023-02-19T20:06:36.598Z,6.53717
2023-02-19T20:10:01.861Z,6.506958
2023-02-19T20:13:27.148Z,6.557312
2023-02-19T20:16:52.509Z,6.617737
2023-02-19T20:20:17.806Z,6.65802
2023-02-19T20:23:43.065Z,6.688232
2023-02-19T20:27:08.353Z,6.708374
2023-02-19T20:30:33.661Z,6.698303
2023-02-19T20:33:58.919Z,6.698303
2023-02-19T20:37:24.236Z,6.637878
2023-02-19T20:40:49.483Z,6.557312
2023-02-19T20:44:14.747Z,6.53717
2023-02-19T20:47:39.944Z,6.486816
2023-02-19T20:51:05.108Z,6.436462
2023-02-19T20:54:30.352Z,6.396179
2023-02-19T20:57:55.585Z,6.376038
2023-02-19T21:01:20.801Z,6.335754
2023-02-19T21:04:45.989Z,6.325684
2023-02-19T21:08:11.194Z,6.355896
2023-02-19T21:11:36.331Z,6.355896
2023-02-19T21:15:01.538Z,6.305542
2023-02-19T21:18:26.756Z,6.295471
2023-02-19T21:21:51.959Z,6.305542
2023-02-19T21:25:17.165Z,6.325684
2023-02-19T21:28:42.334Z,6.376038
2023-02-19T21:32:07.648Z,6.355896
2023-02-19T21:35:32.636Z,6.365967
2023-02-19T21:38:57.853Z,6.335754
2023-02-19T21:42:23.053Z,6.305542
2023-02-19T21:45:48.277Z,6.194763
2023-02-19T21:49:13.393Z,6.144409
2023-02-19T21:52:38.610Z,6.15448
2023-02-19T21:56:03.804Z,6.214905
2023-02-19T21:59:29.015Z,6.245117
2023-02-19T22:02:54.254Z,6.27533
2023-02-19T22:06:19.430Z,6.27533
2023-02-19T22:09:44.650Z,6.245117
2023-02-19T22:13:09.880Z,6.265259
2023-02-19T22:16:35.217Z,6.265259
2023-02-19T22:20:00.308Z,6.214905
2023-02-19T22:23:25.527Z,6.224976
2023-02-19T22:26:50.789Z,6.224976
2023-02-19T22:30:15.914Z,6.27533
2023-02-19T22:33:41.046Z,6.335754
2023-02-19T22:37:06.294Z,6.365967
2023-02-19T22:40:31.491Z,6.396179
2023-02-19T22:43:56.899Z,6.355896
2023-02-19T22:47:22.116Z,6.295471
2023-02-19T22:50:47.340Z,6.325684
2023-02-19T22:54:12.630Z,6.305542
2023-02-19T22:57:37.793Z,6.27533
2023-02-19T23:01:03.002Z,6.224976
2023-02-19T23:04:28.152Z,6.214905
2023-02-19T23:07:53.308Z,6.245117
2023-02-19T23:11:18.545Z,6.325684
2023-02-19T23:14:43.761Z,6.355896
2023-02-19T23:18:08.955Z,6.355896
2023-02-19T23:21:34.174Z,6.27533
2023-02-19T23:24:59.344Z,6.335754
2023-02-19T23:28:24.519Z,6.295471
2023-02-19T23:31:49.767Z,6.335754
2023-02-19T23:35:14.878Z,6.355896
2023-02-19T23:38:40.065Z,6.436462
2023-02-19T23:42:05.268Z,6.376038
2023-02-19T23:45:30.461Z,6.335754
2023-02-19T23:48:55.656Z,6.396179
2023-02-19T23:52:20.828Z,6.355896
2023-02-19T23:55:46.032Z,6.325684
2023-02-19T23:59:11.241Z,6.355896
